Terminal Aerodrome Forecast
Issued by NWS Amarillo, TX

Home | Current Version | Previous Version | Text Only | Print | Product List | Glossary On
Versions: 1 2 3 4 5 6 7 8 9 10 11 12 13 14 15 16
000
FTUS44 KAMA 191300 AAA
TAFDHT
TAF AMD
KDHT 191347Z 1914/2012 18008KT P6SM SCT015 OVC050
      TEMPO 1914/1917 BKN015
     FM191700 18013KT P6SM SCT015 OVC040
     FM192000 17014KT P6SM VCSH SCT008 OVC015
      TEMPO 1920/1924 4SM -SHRA BR OVC008
     FM200100 14008KT P6SM -SHRA SCT008 OVC015
     FM200500 18008KT P6SM OVC008=

USA.gov is the U.S. government's official web portal to all federal, state and local government web resources and services.